Time;durP1;ratioP1;P1;durP2;ratioP2;P2;SDS_P1;SDS_P2;PMS_P1;PMS_P2;Temp;Humidity;BMP_temperature;BMP_pressure;BME280_temperature;BME280_humidity;BME280_pressure;Samples;Min_cycle;Max_cycle;Signal;HPM_P1;HPM_P2
2022/05/03 00:02:23;;;;;;;0.90;0.80;;;;;;;10.48;48.37;101157.25;4973315;28;20126;-81
2022/05/03 00:05:17;;;;;;;0.95;0.60;;;;;;;10.48;47.98;101152.03;5007270;28;20525;-81
2022/05/03 00:08:11;;;;;;;0.73;0.70;;;;;;;10.36;48.05;101147.63;4988703;28;20038;-82
2022/05/03 00:11:01;;;;;;;0.75;0.75;;;;;;;10.25;48.37;101155.47;4978395;28;20777;-82
2022/05/03 00:14:02;;;;;;;0.90;0.52;;;;;;;10.19;48.87;101165.06;4987711;28;20045;-82
2022/05/03 00:16:29;;;;;;;0.98;0.57;;;;;;;10.10;49.14;101158.06;4945066;28;20157;-83
2022/05/03 00:18:57;;;;;;;0.73;0.60;;;;;;;10.00;49.04;101158.91;4971581;28;20357;-82
2022/05/03 00:21:24;;;;;;;2.17;1.30;;;;;;;9.89;49.28;101153.69;4988189;28;20045;-80
2022/05/03 00:23:51;;;;;;;0.63;0.57;;;;;;;9.78;49.51;101156.28;4983297;28;20161;-80
2022/05/03 00:26:18;;;;;;;0.45;0.45;;;;;;;9.67;49.52;101153.59;4972801;28;20053;-83
2022/05/03 00:28:46;;;;;;;0.70;0.70;;;;;;;9.58;49.62;101154.47;4970349;28;20057;-81
2022/05/03 00:31:15;;;;;;;1.08;1.08;;;;;;;9.49;49.76;101151.84;4988377;28;20050;-81
2022/05/03 00:33:49;;;;;;;0.40;0.20;;;;;;;9.46;49.63;101157.03;4972984;28;20910;-80
2022/05/03 00:36:16;;;;;;;0.45;0.45;;;;;;;9.48;49.62;101160.53;4971512;28;20444;-81
2022/05/03 00:38:42;;;;;;;2.25;0.60;;;;;;;9.52;49.31;101164.91;4980475;28;20046;-79
2022/05/03 00:41:11;;;;;;;0.50;0.50;;;;;;;9.56;49.53;101157.97;4969024;28;20058;-82
2022/05/03 00:44:55;;;;;;;0.70;0.45;;;;;;;9.58;49.36;101159.72;4971820;28;20058;-81
2022/05/03 00:46:56;;;;;;;1.65;1.55;;;;;;;9.58;49.21;101156.19;4991215;28;20045;-81
2022/05/03 00:50:04;;;;;;;0.80;0.80;;;;;;;9.59;49.73;101150.13;4979964;28;20473;-80
2022/05/03 00:52:47;;;;;;;0.73;0.73;;;;;;;9.62;49.45;101157.09;4973633;28;20046;-81
2022/05/03 00:55:56;;;;;;;1.52;0.90;;;;;;;9.66;49.14;101156.22;4970080;28;20050;-82
2022/05/03 00:58:58;;;;;;;1.23;0.52;;;;;;;9.62;49.43;101154.47;4987828;28;20064;-80
2022/05/03 01:02:05;;;;;;;1.48;0.70;;;;;;;9.56;49.51;101161.44;4974626;28;20042;-82
2022/05/03 01:04:50;;;;;;;2.65;0.55;;;;;;;9.51;49.46;101154.44;4988187;28;20038;-81
2022/05/03 01:07:49;;;;;;;0.60;0.60;;;;;;;9.49;49.90;101162.28;4973894;28;20512;-82
2022/05/03 01:10:32;;;;;;;0.30;0.22;;;;;;;9.45;49.71;101150.06;4951364;28;20056;-83
2022/05/03 01:13:10;;;;;;;1.25;0.50;;;;;;;9.42;50.08;101153.53;4983923;28;20057;-83
2022/05/03 01:15:45;;;;;;;1.48;0.60;;;;;;;9.38;49.90;101148.31;4973163;28;20404;-83
2022/05/03 01:18:57;;;;;;;3.10;0.43;;;;;;;9.33;50.36;101152.63;4972527;28;20054;-80
2022/05/03 01:22:00;;;;;;;0.57;0.43;;;;;;;9.25;50.34;101147.38;4971129;28;20172;-81
2022/05/03 01:25:31;;;;;;;1.90;0.65;;;;;;;9.13;51.17;101152.56;4970259;28;20130;-84
2022/05/03 01:28:28;;;;;;;1.45;0.57;;;;;;;8.97;51.10;101154.19;4984980;28;20054;-81
2022/05/03 01:30:59;;;;;;;3.10;1.35;;;;;;;8.83;51.42;101154.13;5005476;28;20060;-82
2022/05/03 01:33:40;;;;;;;2.50;1.00;;;;;;;8.67;52.39;101156.63;4990911;28;20074;-83
2022/05/03 01:36:10;;;;;;;1.10;0.80;;;;;;;8.54;52.33;101152.16;4973935;28;20054;-82
2022/05/03 01:39:06;;;;;;;2.67;1.05;;;;;;;8.38;52.98;101146.81;5001625;28;20049;-82
2022/05/03 01:42:01;;;;;;;2.47;1.27;;;;;;;8.25;53.14;101150.16;4982200;28;20563;-81
2022/05/03 01:44:51;;;;;;;0.90;0.68;;;;;;;8.13;53.81;101150.06;4973331;28;20111;-80
2022/05/03 01:47:21;;;;;;;0.52;0.40;;;;;;;8.01;54.03;101143.88;4973549;28;20042;-81
2022/05/03 01:50:44;;;;;;;2.30;0.65;;;;;;;7.92;54.51;101154.22;4985033;28;20148;-82
2022/05/03 01:53:31;;;;;;;0.93;0.75;;;;;;;7.84;54.39;101145.47;4998236;28;20217;-82
2022/05/03 01:56:32;;;;;;;1.45;0.70;;;;;;;7.76;54.94;101151.44;4968641;28;20050;-82
2022/05/03 01:59:54;;;;;;;0.98;0.47;;;;;;;7.72;55.21;101151.41;4983997;28;20077;-81
2022/05/03 02:02:48;;;;;;;0.82;0.70;;;;;;;7.72;55.32;101149.66;4978483;28;20095;-81
2022/05/03 02:06:06;;;;;;;1.58;0.88;;;;;;;7.79;55.24;101140.19;5003683;28;20049;-82
2022/05/03 02:09:17;;;;;;;0.60;0.57;;;;;;;7.85;54.99;101141.97;4989712;28;20049;-82
2022/05/03 02:12:15;;;;;;;1.45;0.70;;;;;;;7.92;55.05;101138.56;4983196;28;20109;-80
2022/05/03 02:15:00;;;;;;;0.75;0.73;;;;;;;7.92;54.75;101142.03;4978094;28;20103;-80
2022/05/03 02:17:38;;;;;;;1.58;0.85;;;;;;;7.92;54.84;101139.44;4989708;28;20444;-80
2022/05/03 02:20:57;;;;;;;1.38;0.90;;;;;;;7.94;55.33;101136.88;4997233;28;20320;-81
2022/05/03 02:23:55;;;;;;;1.45;1.00;;;;;;;7.95;55.59;101134.28;4984698;28;21633;-80
2022/05/03 02:26:35;;;;;;;2.40;0.68;;;;;;;8.03;55.17;101138.66;4972116;28;20114;-81
2022/05/03 02:29:11;;;;;;;0.52;0.50;;;;;;;8.06;55.31;101125.69;4988027;28;20401;-83
2022/05/03 02:31:49;;;;;;;3.22;0.73;;;;;;;8.06;55.36;101120.47;4990139;28;20132;-81
2022/05/03 02:34:47;;;;;;;0.47;0.47;;;;;;;8.02;55.88;101123.91;4967252;28;20104;-81
2022/05/03 02:37:24;;;;;;;1.70;1.15;;;;;;;7.97;55.53;101125.59;4970369;28;20049;-82
2022/05/03 02:40:04;;;;;;;0.60;0.60;;;;;;;7.94;55.64;101122.09;4960412;28;20412;-79
2022/05/03 02:42:33;;;;;;;1.48;1.15;;;;;;;7.93;55.86;101122.09;4987408;28;20848;-82
2022/05/03 02:45:03;;;;;;;1.30;0.90;;;;;;;7.92;56.13;101122.94;4969510;28;20477;-82
2022/05/03 02:47:44;;;;;;;3.63;1.50;;;;;;;7.90;56.42;101128.13;4991125;28;20065;-81
2022/05/03 02:50:20;;;;;;;1.65;1.00;;;;;;;7.89;56.38;101123.78;4981846;28;20053;-80
2022/05/03 02:53:19;;;;;;;1.30;1.23;;;;;;;7.94;56.78;101129.91;4985066;28;20050;-82
2022/05/03 02:55:55;;;;;;;1.23;1.13;;;;;;;7.98;56.44;101123.00;4982561;28;20597;-82
2022/05/03 02:58:55;;;;;;;1.75;0.80;;;;;;;8.05;56.56;101134.34;4965742;28;20651;-81
2022/05/03 03:01:48;;;;;;;2.92;1.10;;;;;;;8.08;56.53;101118.72;5001580;28;20053;-80
2022/05/03 03:04:21;;;;;;;0.95;0.95;;;;;;;8.09;56.33;101123.94;4984581;28;20046;-79
2022/05/03 03:06:54;;;;;;;3.80;1.10;;;;;;;8.11;56.44;101118.78;5002466;28;20057;-80
2022/05/03 03:10:05;;;;;;;2.42;1.42;;;;;;;8.08;56.67;101118.72;4983505;28;21514;-80
2022/05/03 03:12:55;;;;;;;2.53;1.23;;;;;;;8.01;57.09;101115.19;4983334;28;20045;-82
2022/05/03 03:15:30;;;;;;;2.33;1.73;;;;;;;7.95;57.75;101117.75;4987076;28;20050;-79
2022/05/03 03:17:58;;;;;;;2.42;1.00;;;;;;;7.92;57.22;101117.72;4974942;28;20095;-82
2022/05/03 03:20:29;;;;;;;1.63;0.93;;;;;;;7.93;57.36;101124.69;4973340;28;20061;-81
2022/05/03 03:22:56;;;;;;;1.45;1.23;;;;;;;7.94;57.57;101116.00;4984924;28;20140;-80
2022/05/03 03:25:24;;;;;;;0.80;0.80;;;;;;;7.96;57.38;101114.28;4999557;28;20042;-83
2022/05/03 03:27:54;;;;;;;3.13;1.55;;;;;;;7.97;57.40;101115.16;4972658;28;20466;-82
2022/05/03 03:30:21;;;;;;;2.00;1.10;;;;;;;7.95;57.68;101117.75;4978196;28;20057;-81
2022/05/03 03:32:56;;;;;;;2.75;2.55;;;;;;;7.93;57.93;101115.13;4989012;28;20121;-80
2022/05/03 03:35:24;;;;;;;2.03;1.40;;;;;;;7.91;57.63;101114.25;4993559;28;20053;-82
2022/05/03 03:37:52;;;;;;;3.83;1.65;;;;;;;7.91;58.03;101115.97;4991492;28;20042;-83
2022/05/03 03:40:21;;;;;;;2.25;1.17;;;;;;;7.92;57.99;101118.59;4978567;28;20080;-84
2022/05/03 03:42:51;;;;;;;1.92;1.33;;;;;;;7.92;58.09;101118.59;4990865;28;20056;-83
2022/05/03 03:45:18;;;;;;;5.20;1.33;;;;;;;7.96;58.12;101127.31;4976023;28;20045;-81
2022/05/03 03:47:47;;;;;;;2.75;1.05;;;;;;;7.94;58.10;101127.31;4990511;28;20135;-81
2022/05/03 03:50:15;;;;;;;10.05;1.35;;;;;;;7.91;58.19;101119.47;4968937;28;20064;-82
2022/05/03 03:52:46;;;;;;;2.60;1.33;;;;;;;7.85;57.96;101115.91;4984939;28;20061;-81
2022/05/03 03:55:22;;;;;;;1.77;1.35;;;;;;;7.83;58.05;101115.88;4996828;28;20042;-82
2022/05/03 03:57:51;;;;;;;1.33;1.23;;;;;;;7.83;58.24;101117.63;5001490;28;20049;-82
2022/05/03 04:00:21;;;;;;;1.33;1.20;;;;;;;7.80;58.23;101118.47;4988063;28;20356;-81
2022/05/03 04:02:48;;;;;;;2.17;1.30;;;;;;;7.79;58.36;101121.94;4972664;28;21389;-82
2022/05/03 04:05:24;;;;;;;0.93;0.80;;;;;;;7.80;58.67;101120.22;4985786;28;20041;-83
2022/05/03 04:07:52;;;;;;;2.58;1.65;;;;;;;7.74;58.18;101118.41;4970357;28;20054;-80
2022/05/03 04:10:20;;;;;;;1.67;1.33;;;;;;;7.62;58.63;101119.16;4998527;28;20061;-82
2022/05/03 04:12:48;;;;;;;2.17;1.27;;;;;;;7.50;58.82;101119.91;4986270;28;20108;-81
2022/05/03 04:15:14;;;;;;;3.22;1.90;;;;;;;7.42;59.08;101124.16;4994500;28;20038;-84
2022/05/03 04:17:41;;;;;;;1.55;1.45;;;;;;;7.40;59.44;101134.53;4976638;28;20096;-81
2022/05/03 04:20:08;;;;;;;1.88;1.45;;;;;;;7.42;59.30;101131.97;4984806;28;20158;-80
2022/05/03 04:22:36;;;;;;;2.55;1.23;;;;;;;7.44;59.08;101128.53;4974143;28;20546;-80
2022/05/03 04:25:04;;;;;;;1.33;1.05;;;;;;;7.48;59.08;101129.41;4990215;28;20575;-81
2022/05/03 04:27:31;;;;;;;1.48;1.30;;;;;;;7.52;59.05;101133.84;4975029;28;20491;-81
2022/05/03 04:29:58;;;;;;;5.57;1.27;;;;;;;7.54;58.81;101132.09;4976928;28;20057;-80
2022/05/03 04:32:29;;;;;;;5.10;1.45;;;;;;;7.57;59.02;101129.53;4991012;28;20061;-82
2022/05/03 04:34:56;;;;;;;2.13;1.23;;;;;;;7.55;58.94;101135.59;4957516;28;20046;-81
2022/05/03 04:37:23;;;;;;;1.45;1.33;;;;;;;7.50;59.43;101130.31;4972915;28;20041;-80
2022/05/03 04:39:50;;;;;;;3.60;1.63;;;;;;;7.43;59.74;101139.81;4989860;28;20085;-80
2022/05/03 04:42:16;;;;;;;1.58;1.48;;;;;;;7.35;60.05;101141.41;4992210;28;20193;-81
2022/05/03 04:44:43;;;;;;;1.70;1.10;;;;;;;7.26;60.62;101144.81;4985751;28;20057;-82
2022/05/03 04:47:10;;;;;;;4.50;1.27;;;;;;;7.17;60.82;101142.09;4994314;28;20038;-82
2022/05/03 04:49:36;;;;;;;3.70;1.67;;;;;;;7.06;61.63;101151.47;4966827;28;20065;-82
2022/05/03 04:52:03;;;;;;;3.28;1.48;;;;;;;6.97;61.86;101149.63;4991641;28;20053;-81
2022/05/03 04:54:30;;;;;;;2.70;1.77;;;;;;;6.87;62.50;101148.63;4974744;28;20077;-83
2022/05/03 04:57:02;;;;;;;3.65;2.30;;;;;;;6.78;62.33;101153.69;4988667;28;20038;-84
2022/05/03 04:59:29;;;;;;;2.85;1.70;;;;;;;6.72;62.80;101158.81;5009807;28;20049;-80
2022/05/03 05:01:56;;;;;;;3.72;2.03;;;;;;;6.67;63.31;101156.13;4996043;28;20061;-81
2022/05/03 05:04:23;;;;;;;6.22;1.85;;;;;;;6.67;63.17;101163.06;4987693;28;20025;-80
2022/05/03 05:06:50;;;;;;;3.78;2.30;;;;;;;6.66;63.50;101161.31;4973169;28;20107;-83
2022/05/03 05:09:16;;;;;;;1.70;1.60;;;;;;;6.64;63.55;101163.88;5005701;28;20492;-81
2022/05/03 05:11:43;;;;;;;2.35;2.15;;;;;;;6.65;63.88;101167.34;4988902;28;20077;-83
2022/05/03 05:14:09;;;;;;;1.88;1.60;;;;;;;6.65;63.62;101168.25;4976914;28;20128;-81
2022/05/03 05:16:36;;;;;;;3.25;1.80;;;;;;;6.63;64.42;101167.34;4974456;28;20445;-81
2022/05/03 05:19:03;;;;;;;2.28;1.80;;;;;;;6.61;64.69;101164.72;4987616;28;20137;-80
2022/05/03 05:21:30;;;;;;;3.50;2.13;;;;;;;6.65;64.23;101162.16;4969689;28;20127;-82
2022/05/03 05:23:56;;;;;;;4.13;2.40;;;;;;;6.66;64.39;101164.78;5007051;28;20060;-81
2022/05/03 05:26:23;;;;;;;4.13;1.73;;;;;;;6.67;64.91;101161.31;4988946;28;20045;-80
2022/05/03 05:28:53;;;;;;;11.02;2.75;;;;;;;6.68;64.69;101157.88;4991114;28;20053;-80
2022/05/03 05:31:20;;;;;;;4.05;2.05;;;;;;;6.68;64.96;101165.69;4982901;28;20140;-82
2022/05/03 05:33:47;;;;;;;6.63;3.05;;;;;;;6.73;65.23;101165.75;4985557;28;20116;-81
2022/05/03 05:36:13;;;;;;;5.97;3.40;;;;;;;6.76;65.02;101158.84;4994019;28;20632;-82
2022/05/03 05:38:40;;;;;;;4.00;2.80;;;;;;;6.79;65.43;101163.22;4979810;28;20053;-83
2022/05/03 05:41:16;;;;;;;3.65;3.13;;;;;;;6.84;65.28;101160.72;4978362;28;20042;-81
2022/05/03 05:43:43;;;;;;;5.22;3.38;;;;;;;6.88;65.10;101163.41;4985948;28;20107;-82
2022/05/03 05:46:11;;;;;;;4.93;3.75;;;;;;;6.94;65.81;101170.41;4983872;28;20042;-81
2022/05/03 05:48:40;;;;;;;8.00;2.90;;;;;;;7.04;65.42;101167.09;4996252;28;20049;-81
2022/05/03 05:51:06;;;;;;;3.90;2.83;;;;;;;7.09;65.40;101172.34;4981038;28;20072;-84
2022/05/03 05:53:32;;;;;;;4.22;3.33;;;;;;;7.14;65.31;101175.00;4996610;28;20545;-83
2022/05/03 05:56:03;;;;;;;6.35;4.43;;;;;;;7.18;65.58;101169.84;4998579;28;20112;-81
2022/05/03 05:58:30;;;;;;;5.95;3.08;;;;;;;7.29;66.22;101167.41;5001085;28;20070;-81
2022/05/03 06:01:00;;;;;;;7.82;3.13;;;;;;;7.35;65.69;101164.00;4999163;28;20097;-83
2022/05/03 06:03:28;;;;;;;6.32;2.70;;;;;;;7.38;65.33;101169.22;5000434;28;20100;-82
2022/05/03 06:05:56;;;;;;;4.55;3.50;;;;;;;7.40;65.82;101170.13;4998838;28;20073;-83
2022/05/03 06:08:23;;;;;;;10.02;3.97;;;;;;;7.45;65.58;101173.69;4978455;28;20493;-80
2022/05/03 06:10:50;;;;;;;3.45;2.58;;;;;;;7.50;65.31;101176.34;4980636;28;20151;-82
2022/05/03 06:13:17;;;;;;;5.72;2.85;;;;;;;7.57;65.49;101181.66;4999300;28;20408;-83
2022/05/03 06:15:44;;;;;;;6.43;2.63;;;;;;;7.64;65.41;101174.78;4998747;28;20073;-80
2022/05/03 06:18:10;;;;;;;3.25;2.67;;;;;;;7.71;64.95;101179.19;5013084;28;20052;-83
2022/05/03 06:20:37;;;;;;;3.42;2.83;;;;;;;7.77;65.00;101181.00;4985608;28;20056;-82
2022/05/03 06:23:05;;;;;;;5.80;3.28;;;;;;;7.85;64.90;101183.66;4980011;28;20042;-83
2022/05/03 06:25:32;;;;;;;11.23;3.35;;;;;;;7.92;64.54;101181.16;4993657;28;20046;-83
2022/05/03 06:27:58;;;;;;;9.30;2.20;;;;;;;7.96;64.16;101179.44;4978353;28;20134;-83
2022/05/03 06:30:25;;;;;;;5.55;3.15;;;;;;;8.04;64.53;101188.22;4996014;28;20053;-82
2022/05/03 06:32:52;;;;;;;12.23;3.78;;;;;;;8.10;63.95;101183.06;4991318;28;20128;-83
2022/05/03 06:35:19;;;;;;;2.67;2.25;;;;;;;8.18;63.66;101188.38;4981099;28;20049;-83
2022/05/03 06:37:46;;;;;;;10.00;2.70;;;;;;;8.28;63.30;101190.19;4996904;28;20093;-84
2022/05/03 06:40:12;;;;;;;2.97;2.33;;;;;;;8.36;62.51;101194.63;4976340;28;20138;-82
2022/05/03 06:42:40;;;;;;;3.45;2.55;;;;;;;8.42;61.77;101194.66;4961096;28;20074;-83
2022/05/03 06:45:10;;;;;;;7.22;3.60;;;;;;;8.53;61.58;101198.28;4979607;28;20054;-82
2022/05/03 06:47:38;;;;;;;2.30;2.10;;;;;;;8.65;60.74;101194.88;4963735;28;20042;-85
2022/05/03 06:50:05;;;;;;;9.13;4.53;;;;;;;8.73;60.42;101203.63;4956814;28;20054;-82
2022/05/03 06:52:31;;;;;;;3.80;2.45;;;;;;;8.82;60.48;101199.38;4961861;28;20043;-81
2022/05/03 06:54:58;;;;;;;4.97;2.67;;;;;;;8.98;59.76;101195.97;4959578;28;20061;-82
2022/05/03 06:57:25;;;;;;;2.97;1.73;;;;;;;9.32;58.86;101188.34;4965234;28;20078;-81
2022/05/03 06:59:52;;;;;;;6.65;2.95;;;;;;;9.79;57.90;101196.34;4958799;28;20147;-80
2022/05/03 07:02:18;;;;;;;5.13;2.45;;;;;;;10.33;56.24;101197.34;4966313;28;20062;-83
2022/05/03 07:04:46;;;;;;;1.38;1.23;;;;;;;10.88;53.85;101187.75;4963385;28;20068;-81
2022/05/03 07:07:14;;;;;;;3.22;1.42;;;;;;;11.44;52.57;101191.09;4957426;28;20433;-83
2022/05/03 07:09:42;;;;;;;2.33;0.93;;;;;;;12.05;49.20;101192.53;4957952;28;20200;-84
2022/05/03 07:12:09;;;;;;;1.70;1.60;;;;;;;12.62;48.50;101196.50;4961105;28;20371;-83
2022/05/03 07:14:36;;;;;;;1.80;1.23;;;;;;;13.26;46.82;101198.50;4993342;28;20314;-83
2022/05/03 07:17:02;;;;;;;2.38;1.08;;;;;;;13.81;44.05;101195.22;4966019;28;20077;-83
2022/05/03 07:24:55;;;;;;;0.60;0.45;;;;;;;14.43;37.82;101186.41;4946881;28;20054;-83
2022/05/03 07:27:21;;;;;;;1.13;0.20;;;;;;;14.66;38.47;101185.16;4963849;28;20046;-81
2022/05/03 07:29:51;;;;;;;1.23;0.47;;;;;;;15.07;37.13;101187.94;4963109;28;20046;-83
2022/05/03 07:32:19;;;;;;;0.45;0.45;;;;;;;15.56;36.78;101186.94;4978702;28;20042;-81
2022/05/03 07:34:46;;;;;;;1.00;0.40;;;;;;;16.12;35.66;101189.25;4957477;28;20077;-81
2022/05/03 07:37:13;;;;;;;3.28;0.60;;;;;;;16.27;33.58;101190.69;4956558;28;20043;-82
2022/05/03 07:39:40;;;;;;;1.95;0.77;;;;;;;16.21;34.10;101189.03;4973044;28;20066;-83
2022/05/03 07:42:07;;;;;;;1.92;1.60;;;;;;;16.21;34.92;101189.03;4972448;28;20070;-82
2022/05/03 07:44:34;;;;;;;0.90;0.60;;;;;;;16.42;35.47;101196.50;4978038;28;20050;-82
2022/05/03 07:47:00;;;;;;;1.42;0.93;;;;;;;16.48;35.16;101197.22;4961193;28;20057;-82
2022/05/03 07:49:27;;;;;;;1.67;1.30;;;;;;;16.95;35.53;101191.63;4961126;28;20105;-82
2022/05/03 07:51:53;;;;;;;0.82;0.82;;;;;;;17.34;34.91;101188.78;4970387;28;20041;-82
2022/05/03 07:54:20;;;;;;;2.33;1.55;;;;;;;17.73;34.13;101187.66;4956713;28;20054;-84
2022/05/03 07:56:47;;;;;;;0.80;0.80;;;;;;;18.17;33.92;101188.09;4968123;28;20046;-83
2022/05/03 07:59:14;;;;;;;2.58;1.80;;;;;;;18.59;32.77;101177.88;4975323;28;20046;-80
2022/05/03 08:01:42;;;;;;;0.80;0.80;;;;;;;18.80;32.55;101185.09;4962690;28;20057;-83
2022/05/03 08:04:09;;;;;;;1.00;1.00;;;;;;;19.16;32.38;101183.88;4956614;28;20071;-83
2022/05/03 08:06:36;;;;;;;1.27;1.20;;;;;;;19.45;31.81;101180.16;4988349;28;20133;-83
2022/05/03 08:09:04;;;;;;;1.25;1.10;;;;;;;19.80;31.25;101185.91;4971507;28;20546;-82
2022/05/03 08:11:30;;;;;;;2.30;1.52;;;;;;;19.97;31.16;101190.56;4959187;28;20046;-82
2022/05/03 08:13:58;;;;;;;1.75;1.20;;;;;;;20.24;30.58;101189.53;4975524;28;20046;-83
2022/05/03 08:16:27;;;;;;;2.63;1.30;;;;;;;20.67;30.21;101195.69;4971117;28;20054;-83
2022/05/03 08:18:53;;;;;;;3.00;1.45;;;;;;;20.93;29.58;101191.94;4982806;28;20054;-83
2022/05/03 08:21:20;;;;;;;1.48;1.20;;;;;;;21.14;28.53;101186.59;4965238;28;20056;-83
2022/05/03 08:23:47;;;;;;;2.40;1.35;;;;;;;21.44;28.52;101196.78;4984939;28;20079;-81
2022/05/03 08:26:15;;;;;;;3.80;1.17;;;;;;;21.93;28.35;101202.50;4969567;28;20048;-82
2022/05/03 08:28:43;;;;;;;4.50;1.95;;;;;;;22.56;27.95;101195.91;4953476;28;20355;-82
2022/05/03 08:31:15;;;;;;;2.00;1.80;;;;;;;22.99;26.95;101192.81;4946021;28;20050;-81
2022/05/03 08:33:43;;;;;;;3.60;1.60;;;;;;;23.40;26.88;101195.13;4957640;28;20057;-83
2022/05/03 08:36:13;;;;;;;4.40;1.50;;;;;;;23.56;25.91;101189.81;4953657;28;20046;-81
2022/05/03 08:44:09;;;;;;;3.08;1.88;;;;;;;23.53;26.64;101199.78;4989993;28;20293;-81
2022/05/03 08:46:37;;;;;;;1.80;1.70;;;;;;;23.51;27.11;101191.00;4992553;28;20045;-83
2022/05/03 08:49:07;;;;;;;2.78;1.63;;;;;;;23.52;26.22;101203.41;4990129;28;20041;-81
2022/05/03 08:51:34;;;;;;;5.65;1.73;;;;;;;23.33;27.22;101207.09;4966650;28;20050;-83
2022/05/03 08:54:02;;;;;;;2.17;2.08;;;;;;;23.39;27.11;101205.91;4967965;28;20056;-82
2022/05/03 08:56:30;;;;;;;3.88;1.70;;;;;;;23.71;27.15;101205.94;4984994;28;20576;-82
2022/05/03 08:58:57;;;;;;;2.72;2.53;;;;;;;24.43;26.53;101201.84;4970381;28;20076;-82
2022/05/03 09:01:24;;;;;;;1.35;1.25;;;;;;;25.30;25.61;101201.19;4968817;28;20101;-81
2022/05/03 09:03:53;;;;;;;2.10;2.00;;;;;;;25.87;25.04;101195.75;4986116;28;20881;-83
2022/05/03 09:06:20;;;;;;;2.63;1.95;;;;;;;26.27;24.45;101197.69;4979240;28;20054;-81
2022/05/03 09:08:51;;;;;;;1.63;1.55;;;;;;;26.69;23.76;101203.78;4970607;28;20693;-84
2022/05/03 09:11:21;;;;;;;2.90;1.50;;;;;;;26.32;23.54;101194.69;4987497;28;20124;-82
2022/05/03 09:13:48;;;;;;;1.85;1.75;;;;;;;25.23;24.39;101201.56;4977597;28;20452;-82
2022/05/03 09:16:18;;;;;;;1.70;1.60;;;;;;;24.71;25.09;101207.41;4974601;28;20566;-82
2022/05/03 09:18:47;;;;;;;2.20;2.10;;;;;;;24.74;25.45;101209.91;4993075;28;20128;-82
2022/05/03 09:24:13;;;;;;;5.30;1.88;;;;;;;25.63;24.84;101205.38;4998403;28;20280;-85
2022/05/03 09:26:40;;;;;;;2.17;1.98;;;;;;;26.13;24.23;101201.28;4987529;28;20072;-81
2022/05/03 09:29:19;;;;;;;3.55;2.28;;;;;;;26.43;23.67;101194.81;4974087;28;20441;-82
2022/05/03 09:31:50;;;;;;;2.72;2.10;;;;;;;26.47;23.74;101200.84;5005849;28;20047;-83
2022/05/03 09:34:27;;;;;;;4.38;2.45;;;;;;;27.15;22.92;101186.31;4976916;28;20391;-83
2022/05/03 09:37:04;;;;;;;2.42;2.33;;;;;;;27.90;22.52;101189.97;4975347;28;20058;-82
2022/05/03 09:39:47;;;;;;;5.53;2.67;;;;;;;27.96;22.19;101189.50;4983571;28;20061;-82
2022/05/03 09:42:20;;;;;;;2.40;2.10;;;;;;;28.18;22.50;101202.22;4973507;28;20046;-83
2022/05/03 09:45:02;;;;;;;2.22;2.03;;;;;;;28.72;21.63;101194.63;4991278;28;20054;-83
2022/05/03 09:47:31;;;;;;;2.92;2.72;;;;;;;28.60;21.84;101185.63;4972909;28;20357;-83
2022/05/03 09:50:00;;;;;;;3.85;2.35;;;;;;;28.88;21.05;101186.22;4965870;28;20053;-82
2022/05/03 09:52:37;;;;;;;2.40;2.20;;;;;;;28.98;21.48;101183.66;4968174;28;20058;-82
2022/05/03 09:55:09;;;;;;;3.90;2.97;;;;;;;29.04;21.27;101185.88;4970557;28;20056;-85
2022/05/03 09:57:42;;;;;;;3.45;3.20;;;;;;;28.23;21.40;101174.97;4967176;28;20052;-82
2022/05/03 10:00:12;;;;;;;3.35;3.10;;;;;;;27.88;22.18;101179.28;5003053;28;20049;-84
2022/05/03 10:02:42;;;;;;;2.85;2.75;;;;;;;28.19;22.16;101177.03;4992056;28;20053;-83
2022/05/03 10:05:11;;;;;;;3.20;2.92;;;;;;;28.41;21.89;101178.13;5002000;28;20049;-84
2022/05/03 10:07:39;;;;;;;3.15;2.88;;;;;;;28.91;21.36;101185.97;4964058;28;20121;-82
2022/05/03 10:10:11;;;;;;;4.85;4.47;;;;;;;29.24;21.22;101173.47;4967311;28;21306;-83
2022/05/03 10:12:37;;;;;;;3.35;3.15;;;;;;;29.51;20.46;101170.44;4970119;28;20069;-83
2022/05/03 10:15:05;;;;;;;6.03;2.92;;;;;;;29.91;20.40;101163.63;4977183;28;20049;-86
2022/05/03 10:20:40;;;;;;;4.32;3.08;;;;;;;30.77;19.39;101169.00;4967688;28;20026;-84
2022/05/03 10:23:32;;;;;;;3.17;2.97;;;;;;;31.05;19.41;101168.47;4984283;28;20105;-82
2022/05/03 10:26:09;;;;;;;3.60;3.35;;;;;;;31.45;19.26;101157.66;4997380;28;20152;-82
2022/05/03 10:29:10;;;;;;;3.63;3.42;;;;;;;31.89;18.25;101162.78;4987759;28;20046;-83
2022/05/03 10:32:04;;;;;;;3.92;3.20;;;;;;;31.58;18.04;101159.28;4966298;28;20066;-81
2022/05/03 10:34:56;;;;;;;4.15;3.85;;;;;;;31.91;18.37;101159.91;4981809;28;20069;-85
2022/05/03 10:37:29;;;;;;;3.77;3.47;;;;;;;31.65;18.40;101155.91;4982206;28;20066;-85
2022/05/03 10:39:59;;;;;;;3.53;3.30;;;;;;;31.50;18.90;101166.22;4984761;28;20145;-82
2022/05/03 10:42:31;;;;;;;4.18;3.70;;;;;;;31.64;18.80;101150.59;4973169;28;20072;-83
2022/05/03 10:45:07;;;;;;;3.95;3.47;;;;;;;31.69;18.59;101155.63;4993617;28;20053;-84
2022/05/03 10:47:46;;;;;;;2.40;2.20;;;;;;;32.25;18.03;101149.53;4968674;28;20042;-82
2022/05/03 10:50:12;;;;;;;3.88;3.53;;;;;;;32.29;18.15;101147.41;4988085;28;20041;-83
2022/05/03 10:52:59;;;;;;;3.90;3.47;;;;;;;31.83;18.75;101152.50;5007801;28;20137;-83
2022/05/03 10:55:32;;;;;;;5.47;2.92;;;;;;;32.22;18.50;101149.81;4956674;28;20449;-82
2022/05/03 10:58:35;;;;;;;4.80;3.42;;;;;;;32.53;17.93;101144.22;4970216;28;21140;-84
2022/05/03 11:01:18;;;;;;;3.40;3.20;;;;;;;33.20;17.34;101136.03;4979245;28;20054;-83
2022/05/03 11:03:48;;;;;;;3.83;3.63;;;;;;;32.18;18.11;101134.88;5003865;28;20112;-82
2022/05/03 11:06:21;;;;;;;5.28;3.40;;;;;;;32.07;18.46;101126.84;4987655;28;20049;-84
2022/05/03 11:09:02;;;;;;;3.47;3.25;;;;;;;32.30;17.95;101133.69;5006226;28;20046;-82
2022/05/03 11:11:39;;;;;;;3.67;3.38;;;;;;;32.94;18.15;101127.72;5000212;28;20045;-82
2022/05/03 11:14:18;;;;;;;3.20;3.00;;;;;;;33.74;17.30;101122.59;5007579;28;20072;-82
2022/05/03 11:17:08;;;;;;;3.75;3.40;;;;;;;34.31;16.49;101126.84;4995468;28;20925;-84
2022/05/03 11:19:58;;;;;;;4.28;3.42;;;;;;;34.28;17.08;101117.13;4989459;28;20045;-84
2022/05/03 11:22:32;;;;;;;3.55;3.35;;;;;;;33.55;17.06;101114.59;4970546;28;20144;-83
2022/05/03 11:25:00;;;;;;;3.28;2.67;;;;;;;32.75;17.66;101123.22;4982934;28;20142;-82
2022/05/03 11:27:27;;;;;;;3.00;2.80;;;;;;;33.38;17.29;101114.41;4971165;28;20045;-84
2022/05/03 11:30:00;;;;;;;4.00;3.05;;;;;;;34.05;16.64;101111.34;4971299;28;20449;-82
2022/05/03 11:32:38;;;;;;;3.08;2.88;;;;;;;34.52;16.21;101109.34;4986325;28;20046;-84
2022/05/03 11:35:17;;;;;;;3.03;2.83;;;;;;;34.56;16.37;101113.44;4971487;28;20050;-83
2022/05/03 11:37:55;;;;;;;5.18;4.18;;;;;;;34.03;16.42;101113.38;4973689;28;20050;-83
2022/05/03 11:40:26;;;;;;;3.22;3.03;;;;;;;33.14;17.34;101110.38;4988208;28;20054;-83
2022/05/03 11:42:53;;;;;;;4.30;3.97;;;;;;;33.64;16.99;101100.09;4992718;28;20053;-85
2022/05/03 11:45:21;;;;;;;3.53;3.22;;;;;;;33.86;16.82;101101.53;4979138;28;20050;-83
2022/05/03 11:47:50;;;;;;;3.13;2.88;;;;;;;34.33;16.53;101102.25;4990763;28;20152;-84
2022/05/03 11:56:02;;;;;;;3.20;3.00;;;;;;;30.41;19.58;101092.81;4986163;28;20080;-83
2022/05/03 11:58:40;;;;;;;4.28;3.97;;;;;;;29.86;20.35;101101.91;4985756;28;20045;-84
2022/05/03 12:01:16;;;;;;;4.50;4.10;;;;;;;30.49;19.92;101097.59;4987318;28;20050;-82
2022/05/03 12:03:53;;;;;;;4.53;3.42;;;;;;;31.01;19.28;101093.00;4974426;28;20050;-83
2022/05/03 12:06:21;;;;;;;4.40;3.92;;;;;;;31.74;18.84;101091.94;4973625;28;20060;-84
2022/05/03 12:08:50;;;;;;;3.80;3.50;;;;;;;32.03;18.87;101092.94;4976102;28;20052;-84
2022/05/03 12:11:21;;;;;;;4.63;3.47;;;;;;;32.08;18.30;101088.78;4992184;28;20073;-81
2022/05/03 12:13:48;;;;;;;4.22;3.92;;;;;;;32.44;18.30;101085.50;4975641;28;20065;-82
2022/05/03 12:16:17;;;;;;;3.63;3.42;;;;;;;32.24;18.03;101090.97;4989347;28;20045;-82
2022/05/03 12:18:48;;;;;;;3.28;3.03;;;;;;;32.11;18.13;101095.78;4988305;28;20084;-84
2022/05/03 12:21:21;;;;;;;3.35;3.15;;;;;;;32.23;18.18;101083.81;4992435;28;20077;-84
2022/05/03 12:24:05;;;;;;;3.83;3.40;;;;;;;29.93;20.01;101080.69;4973521;28;20060;-82
2022/05/03 12:26:39;;;;;;;5.65;2.65;;;;;;;27.56;22.13;101083.03;4988127;28;20132;-83